Latest Weather Observations for Nuriootpa

IDS60801

Issued at 7:01 am CDT Tuesday 7 December 2021 (issued every 10 minutes, with the page automatically refreshed every 10 minutes)

About weather observations | Map of weather stations | Latest weather observations for SA | Other Formats
Station Details ID: 023373 Name: NURIOOTPA PIRSA Lat: -34.48 Lon: 139.01 Height: 275.0 m
Data from the previous 72 hours. | See also: Recent months at Nuriootpa
Date/Time
CDT
Temp
°C
App
Temp
°C
Dew
Point
°C
Rel
Hum
%
Delta-T
°C
Wind Press
QNH
hPa
Press
MSL
hPa
Rain since
9am
mm
Dir  Spd
km/h
Gust
km/h
Spd
kts
Gust
kts
07/07:00am 11.4 11.5 10.0 91 0.7 CALM 0 0 0 0 1015.3 1014.4 0.0
07/06:30am 9.5 9.3 8.9 96 0.3 CALM 0 0 0 0 1015.2 1014.3 0.0
07/06:00am 8.3 7.8 7.9 97 0.2 CALM 0 6 0 3 1015.1 1014.2 0.0
07/05:30am 7.5 6.0 6.6 94 0.4 E 4 7 2 4 1014.7 1013.8 0.0
07/05:00am 8.1 7.5 7.3 95 0.4 CALM 0 0 0 0 1014.3 1013.3 0.0
07/04:30am 7.5 6.8 6.8 95 0.3 CALM 0 0 0 0 1014.3 1013.3 0.0
07/04:00am 7.0 6.1 5.9 93 0.5 CALM 0 6 0 3 1014.0 1013.1 0.0
07/03:30am 7.1 6.1 5.7 91 0.6 CALM 0 0 0 0 1013.8 1012.9 0.0
07/03:00am 8.6 8.0 7.4 92 0.6 CALM 0 0 0 0 1013.7 1012.8 0.0
07/02:30am 9.4 8.1 7.5 88 0.9 SSW 4 7 2 4 1013.7 1012.8 0.0
07/02:00am 10.7 8.7 8.6 87 1.0 SSW 9 11 5 6 1013.9 1013.0 0.0
07/01:30am 11.2 8.9 9.1 87 1.1 SW 11 13 6 7 1014.1 1013.2 0.0
07/01:00am 10.9 9.0 9.0 88 1.0 SSW 9 11 5 6 1014.4 1013.4 0.0
07/12:30am 11.7 10.3 9.6 87 1.1 S 7 9 4 5 1014.6 1013.6 0.0
07/12:00am 12.0 10.9 9.9 87 1.1 SSE 6 9 3 5 1014.5 1013.5 0.0
 
Date/Time
CDT
Temp
°C
App
Temp
°C
Dew
Point
°C
Rel
Hum
%
Delta-T
°C
Wind Press
QNH
hPa
Press
MSL
hPa
Rain since
9am
mm
Dir  Spd
km/h
Gust
km/h
Spd
kts
Gust
kts
06/11:30pm 13.2 12.1 10.7 85 1.3 S 7 11 4 6 1014.4 1013.4 0.0
06/11:00pm 13.9 12.6 11.2 84 1.5 SSW 9 13 5 7 1014.1 1013.2 0.0
06/10:30pm 14.9 13.3 11.5 80 1.8 SW 11 17 6 9 1013.9 1013.0 0.0
06/10:00pm 15.2 13.6 11.6 79 2.0 WSW 11 15 6 8 1013.6 1012.7 0.0
06/09:30pm 16.0 14.2 12.0 77 2.2 WSW 13 20 7 11 1013.3 1012.4 0.0
06/09:00pm 17.1 15.4 11.2 68 3.2 WSW 11 17 6 9 1013.0 1012.1 0.0
06/08:30pm 18.3 14.9 9.1 55 4.9 WSW 17 22 9 12 1012.7 1011.8 0.0
06/08:00pm 19.4 15.2 8.4 49 5.8 SW 20 28 11 15 1012.5 1011.6 0.0
06/07:30pm 20.6 16.1 8.6 46 6.4 SW 22 32 12 17 1012.3 1011.4 0.0
06/07:00pm 21.2 16.0 8.8 45 6.6 SW 26 37 14 20 1012.0 1011.1 0.0
06/06:30pm 22.2 16.4 8.0 40 7.5 SW 28 35 15 19 1011.5 1010.6 0.0
06/06:00pm 23.4 18.3 7.5 36 8.4 SW 24 33 13 18 1011.1 1010.1 0.0
06/05:30pm 24.0 17.5 4.9 29 9.7 SW 28 41 15 22 1011.0 1010.0 0.0
06/05:00pm 24.5 17.9 4.3 27 10.2 SW 28 41 15 22 1010.9 1009.9 0.0
06/04:30pm 25.1 19.1 5.3 28 10.2 WSW 26 41 14 22 1011.0 1010.0 0.0
06/04:00pm 25.2 19.5 8.2 34 9.2 WSW 28 39 15 21 1010.9 1009.9 0.0
06/03:30pm 26.0 20.3 6.6 29 10.3 SW 26 43 14 23 1010.9 1009.9 0.0
06/03:00pm 26.1 20.9 7.2 30 10.1 WSW 24 35 13 19 1010.9 1009.9 0.0
06/02:30pm 26.9 22.2 7.9 30 10.3 SW 22 33 12 18 1011.1 1010.1 0.0
06/02:00pm 26.7 21.8 8.6 32 10.0 WSW 24 37 13 20 1011.2 1010.2 0.0
06/01:30pm 26.8 20.8 8.7 32 10.0 WSW 30 44 16 24 1011.2 1010.2 0.0
06/01:00pm 27.5 22.6 6.8 27 11.1 W 22 37 12 20 1011.3 1010.3 0.0
06/12:30pm 26.1 21.8 5.1 26 10.8 WNW 17 30 9 16 1011.6 1010.7 0.0
06/12:00pm 26.5 21.7 5.5 26 10.9 WNW 20 30 11 16 1011.9 1011.0 0.0
06/11:30am 26.2 22.1 6.3 28 10.5 WNW 17 24 9 13 1012.1 1011.2 0.0
06/11:00am 25.8 21.7 6.4 29 10.2 NE 17 28 9 15 1012.3 1011.4 0.0
06/10:30am 25.5 21.4 6.2 29 10.1 N 17 26 9 14 1012.8 1011.9 0.0
06/10:00am 24.6 21.5 5.4 29 9.9 NE 11 19 6 10 1012.9 1012.0 0.0
06/09:30am 23.7 21.0 5.6 31 9.3 NE 9 17 5 9 1013.2 1012.3 0.0
06/09:00am 22.2 19.4 5.2 33 8.6 NE 9 15 5 8 1013.1 1012.2 0.0
06/08:30am 20.3 19.0 7.7 44 6.6 ENE 4 15 2 8 1013.2 1012.3 0.0
06/08:00am 16.9 15.4 9.1 60 4.1 NE 7 9 4 5 1013.2 1012.3 0.0
06/07:30am 15.4 13.9 9.3 67 3.2 NE 7 9 4 5 1013.3 1012.4 0.0
06/07:00am 14.1 12.7 8.9 71 2.7 WNW 6 15 3 8 1013.2 1012.3 0.0
06/06:30am 10.6 10.2 8.2 85 1.2 CALM 0 6 0 3 1012.9 1012.0 0.0
06/06:00am 10.6 10.0 7.3 80 1.6 CALM 0 0 0 0 1012.8 1011.9 0.0
06/05:30am 12.1 11.5 7.2 72 2.4 CALM 0 0 0 0 1012.7 1011.8 0.0
06/05:00am 13.4 12.5 7.6 68 2.9 E 2 7 1 4 1012.6 1011.7 0.0
06/04:30am 14.9 13.2 7.5 61 3.7 ESE 6 13 3 7 1012.5 1011.6 0.0
06/04:00am 14.9 12.7 7.9 63 3.5 E 9 13 5 7 1012.4 1011.5 0.0
06/03:30am 14.7 11.7 7.7 63 3.5 E 13 19 7 10 1012.5 1011.6 0.0
06/03:00am 14.5 12.3 7.8 64 3.4 ENE 9 15 5 8 1012.6 1011.7 0.0
06/02:30am 14.4 11.4 7.5 63 3.5 ESE 13 19 7 10 1012.6 1011.7 0.0
06/02:00am 14.6 11.1 7.2 61 3.7 ESE 15 22 8 12 1013.0 1012.1 0.0
06/01:30am 14.8 11.0 7.4 61 3.7 ESE 17 24 9 13 1013.2 1012.3 0.0
06/01:00am 15.3 11.0 7.1 58 4.1 ESE 19 28 10 15 1013.5 1012.6 0.0
06/12:30am 15.6 11.1 7.1 57 4.3 ESE 20 30 11 16 1013.8 1012.9 0.0
06/12:00am 15.5 11.1 7.3 58 4.1 ESE 20 32 11 17 1014.4 1013.4 0.0
 
Date/Time
CDT
Temp
°C
App
Temp
°C
Dew
Point
°C
Rel
Hum
%
Delta-T
°C
Wind Press
QNH
hPa
Press
MSL
hPa
Rain since
9am
mm
Dir  Spd
km/h
Gust
km/h
Spd
kts
Gust
kts
05/11:30pm 15.8 11.7 7.8 59 4.1 ESE 19 30 10 16 1014.6 1013.6 0.0
05/11:00pm 15.9 11.8 7.9 59 4.1 ESE 19 28 10 15 1014.8 1013.9 0.0
05/10:30pm 15.9 11.9 8.9 63 3.6 ESE 20 32 11 17 1014.9 1014.0 0.0
05/10:00pm 15.9 11.6 9.3 65 3.5 ESE 22 32 12 17 1014.9 1014.0 0.0
05/09:30pm 16.3 12.0 9.5 64 3.6 ESE 22 32 12 17 1014.9 1014.0 0.0
05/09:00pm 17.1 13.4 9.5 61 4.0 ESE 19 30 10 16 1015.0 1014.1 0.0
05/08:30pm 18.3 14.6 9.4 56 4.7 ESE 19 32 10 17 1015.0 1014.1 0.0
05/08:00pm 19.4 15.5 9.6 53 5.3 SE 20 32 11 17 1014.9 1014.0 0.0
05/07:30pm 20.9 17.4 8.9 46 6.4 ESE 17 32 9 17 1014.8 1013.9 0.0
05/07:00pm 23.5 19.3 4.0 28 9.7 E 15 20 8 11 1014.5 1013.5 0.0
05/06:30pm 24.0 20.9 5.4 30 9.5 E 11 22 6 12 1014.5 1013.5 0.0
05/06:00pm 24.2 20.7 5.5 30 9.6 ENE 13 19 7 10 1014.7 1013.8 0.0
05/05:30pm 24.6 21.6 5.9 30 9.7 E 11 17 6 9 1014.8 1013.9 0.0
05/05:00pm 24.9 21.9 6.1 30 9.8 SE 11 17 6 9 1015.1 1014.2 0.0
05/04:30pm 24.8 22.6 6.1 30 9.7 NNW 7 20 4 11 1015.4 1014.5 0.0
05/04:00pm 24.3 21.1 5.1 29 9.8 E 11 19 6 10 1015.9 1015.0 0.0
05/03:30pm 24.7 22.6 6.0 30 9.7 E 6 13 3 7 1016.2 1015.3 0.0
05/03:00pm 24.1 21.6 6.4 32 9.2 ESE 9 17 5 9 1016.7 1015.8 0.0
05/02:30pm 24.0 21.9 6.7 33 9.0 WNW 7 11 4 6 1017.3 1016.4 0.0
05/02:00pm 23.2 20.8 6.9 35 8.5 ENE 9 15 5 8 1017.7 1016.8 0.0
05/01:30pm 22.9 21.3 7.8 38 8.0 E 6 17 3 9 1018.3 1017.4 0.0
05/01:00pm 21.0 18.8 8.0 43 6.9 NE 9 17 5 9 1018.5 1017.6 0.0
05/12:30pm 21.0 17.7 6.5 39 7.4 NE 13 22 7 12 1018.5 1017.6 0.0
05/12:00pm 20.1 16.7 7.8 45 6.4 NE 15 22 8 12 1018.9 1018.0 0.0
05/11:30am 19.6 15.5 7.7 46 6.2 ENE 19 28 10 15 1019.2 1018.3 0.0
05/11:00am 19.4 16.0 9.3 52 5.4 ENE 17 26 9 14 1019.7 1018.8 0.0
05/10:30am 18.0 14.5 8.8 55 4.8 ENE 17 30 9 16 1020.2 1019.3 0.0
05/10:00am 16.9 13.4 8.6 58 4.3 E 17 30 9 16 1020.5 1019.6 0.0
05/09:30am 16.5 13.0 8.7 60 4.0 ENE 17 24 9 13 1020.8 1019.9 0.0
05/09:00am 16.3 13.2 9.0 62 3.8 E 15 26 8 14 1021.1 1020.3 0.0
05/08:30am 15.6 11.7 8.6 63 3.6 E 19 28 10 15 1021.2 1020.4 0.0
05/08:00am 14.3 10.9 9.1 71 2.7 E 17 26 9 14 1021.0 1020.2 0.0
05/07:30am 12.7 9.9 8.6 76 2.1 E 13 22 7 12 1020.7 1019.8 0.0
05/07:00am 11.3 8.3 7.8 79 1.7 E 13 20 7 11 1020.4 1019.5 0.0
05/06:30am 10.6 6.8 7.5 81 1.5 ESE 17 28 9 15 1020.0 1019.1 0.0
05/06:00am 10.2 6.0 7.4 83 1.4 ESE 19 30 10 16 1019.9 1019.0 0.0
05/05:30am 10.4 6.1 7.8 84 1.3 ESE 20 33 11 18 1019.6 1018.7 0.0
05/05:00am 10.8 6.5 8.0 83 1.4 ESE 20 32 11 17 1019.4 1018.5 0.0
05/04:30am 11.2 6.5 9.1 87 1.1 ESE 24 39 13 21 1019.2 1018.3 0.0
05/04:20am 11.3 5.8 9.0 86 1.2 ESE 28 46 15 25 1019.1 1018.2 0.0
05/04:00am 11.4 6.3 9.3 87 1.1 ESE 26 43 14 23 1019.1 1018.2 0.0
05/03:30am 11.4 5.9 9.3 87 1.1 ESE 28 44 15 24 1019.2 1018.3 0.0
05/03:00am 11.4 7.1 9.5 88 1.0 SE 22 41 12 22 1019.3 1018.4 0.0
05/02:30am 11.3 6.7 9.6 89 0.9 SE 24 39 13 21 1019.6 1018.7 0.0
05/02:00am 11.3 7.1 9.6 89 0.9 SE 22 33 12 18 1019.8 1018.9 0.0
05/01:30am 11.4 7.1 9.3 87 1.1 ESE 22 32 12 17 1020.2 1019.3 0.0
05/01:00am 11.5 7.5 9.2 86 1.2 SE 20 33 11 18 1020.4 1019.5 0.0
05/12:30am 11.5 8.8 9.1 85 1.2 SE 13 20 7 11 1021.0 1020.2 0.0
05/12:00am 11.7 10.1 8.9 83 1.4 E 7 15 4 8 1021.9 1021.0 0.0
 
Date/Time
CDT
Temp
°C
App
Temp
°C
Dew
Point
°C
Rel
Hum
%
Delta-T
°C
Wind Press
QNH
hPa
Press
MSL
hPa
Rain since
9am
mm
Dir  Spd
km/h
Gust
km/h
Spd
kts
Gust
kts
04/11:30pm 11.7 10.7 8.7 82 1.5 E 4 9 2 5 1022.1 1021.2 0.0
04/11:00pm 12.0 11.0 8.8 81 1.6 WNW 4 9 2 5 1022.0 1021.1 0.0
04/10:30pm 12.4 8.9 8.7 78 1.9 SE 17 26 9 14 1021.9 1021.0 0.0
04/10:00pm 12.8 8.6 8.3 74 2.3 SE 20 32 11 17 1021.6 1020.8 0.0
04/09:30pm 13.5 9.3 8.4 71 2.6 SE 20 30 11 16 1021.5 1020.7 0.0
04/09:00pm 14.2 9.9 7.9 66 3.2 SE 20 32 11 17 1021.3 1020.5 0.0
04/08:30pm 15.0 10.7 8.0 63 3.5 SE 20 30 11 16 1021.0 1020.2 0.0
04/08:00pm 16.2 11.9 7.9 58 4.2 SE 20 33 11 18 1020.6 1019.7 0.0
04/07:30pm 17.6 12.6 8.2 54 4.9 SE 24 35 13 19 1020.7 1019.8 0.0
04/07:00pm 19.3 15.0 8.0 48 5.9 SSE 20 30 11 16 1020.4 1019.5 0.0
04/06:30pm 20.5 16.1 7.5 43 6.7 SSE 20 26 11 14 1020.1 1019.2 0.0
04/06:00pm 21.1 16.8 7.7 42 7.0 SE 20 28 11 15 1019.9 1019.0 0.0
04/05:30pm 22.0 17.8 7.4 39 7.6 SE 19 28 10 15 1019.7 1018.8 0.0
04/05:00pm 22.4 18.6 7.4 38 7.9 ESE 17 28 9 15 1019.9 1019.0 0.0
04/04:30pm 22.0 18.3 7.8 40 7.5 ESE 17 24 9 13 1020.1 1019.2 0.0
04/04:00pm 22.9 20.1 7.1 36 8.3 SSW 11 22 6 12 1020.5 1019.6 0.0
04/03:30pm 22.6 18.9 6.4 35 8.3 S 15 22 8 12 1020.7 1019.8 0.0
04/03:00pm 23.1 19.9 6.8 35 8.5 SSE 13 20 7 11 1021.0 1020.2 0.0
04/02:30pm 22.3 19.1 6.9 37 8.0 SSW 13 20 7 11 1021.1 1020.3 0.0
04/02:00pm 21.7 18.7 7.5 40 7.4 SSW 13 20 7 11 1021.4 1020.6 0.0
04/01:30pm 21.3 18.3 7.9 42 7.0 SE 13 24 7 13 1022.0 1021.1 0.0
04/01:00pm 21.0 18.5 8.0 43 6.9 S 11 26 6 14 1022.2 1021.3 0.0
04/12:30pm 20.2 16.7 7.2 43 6.7 SE 15 26 8 14 1022.7 1021.8 0.0
04/12:00pm 19.5 16.8 7.3 45 6.3 SE 11 22 6 12 1022.8 1021.9 0.0
04/11:30am 18.5 14.9 6.7 46 5.9 SSE 15 22 8 12 1023.0 1022.1 0.0
04/11:00am 18.0 14.5 7.1 49 5.5 SSE 15 22 8 12 1023.0 1022.1 0.0
04/10:30am 17.4 14.2 8.3 55 4.7 SE 15 26 8 14 1023.2 1022.3 0.0
04/10:00am 16.3 12.9 7.8 57 4.3 SSE 15 28 8 15 1023.2 1022.3 0.0
04/09:30am 15.1 12.0 7.4 60 3.8 SE 13 19 7 10 1023.5 1022.6 0.0
04/09:00am 14.2 12.3 7.7 65 3.2 SSW 7 11 4 6 1023.5 1022.6 0.0
04/08:30am 13.2 11.0 7.9 70 2.6 S 9 13 5 7 1023.6 1022.7 0.0
04/08:00am 11.7 9.4 7.6 76 2.0 SW 9 13 5 7 1023.5 1022.6 0.0
04/07:30am 10.6 9.0 7.8 83 1.4 SSW 6 7 3 4 1023.2 1022.3 0.0

Other formats

Comma delimited format used in spreadsheet applications
http://www.bom.gov.au/fwo/IDS60801/IDS60801.94681.axf

JavaScript Object Notation format (JSON) in row-major order
http://www.bom.gov.au/fwo/IDS60801/IDS60801.94681.json

Data quality

Most of these data are generated automatically and are frequently updated. Quality checks on data are not normally performed. It is possible for incorrect values to appear. Refer to information at About Latest Weather Observations and please check the disclaimer before using these data.